createdAt,value
2018-03-25T00:02:32.209Z,26.27
2018-03-25T00:07:34.899Z,26.43
2018-03-25T00:12:38.290Z,21.10
2018-03-25T00:17:40.887Z,23.27
2018-03-25T00:22:43.541Z,23.30
2018-03-25T00:27:47.047Z,27.60
2018-03-25T00:32:50.534Z,17.40
2018-03-25T00:37:53.253Z,19.87
2018-03-25T00:42:56.673Z,21.90
2018-03-25T00:47:59.697Z,21.73
2018-03-25T00:53:03.211Z,12.20
2018-03-25T00:58:05.810Z,15.60
2018-03-25T01:03:08.350Z,11.27
2018-03-25T01:08:10.941Z,13.40
2018-03-25T01:13:13.526Z,19.97
2018-03-25T01:18:16.097Z,13.30
2018-03-25T01:23:18.930Z,14.13
2018-03-25T01:28:21.830Z,12.07
2018-03-25T01:33:24.460Z,11.73
2018-03-25T01:38:28.399Z,14.27
2018-03-25T01:43:31.438Z,11.20
2018-03-25T01:48:33.970Z,14.07
2018-03-25T01:53:36.898Z,17.27
2018-03-25T01:58:39.587Z,13.40
2018-03-25T02:03:42.284Z,14.20
2018-03-25T02:08:45.683Z,12.03
2018-03-25T02:13:48.252Z,10.50
2018-03-25T02:18:50.989Z,13.80
2018-03-25T02:23:54.300Z,13.20
2018-03-25T02:28:57.846Z,10.23
2018-03-25T02:34:00.371Z,13.53
2018-03-25T02:39:03.025Z,12.23
2018-03-25T02:44:05.553Z,12.07
2018-03-25T02:49:08.129Z,14.93
2018-03-25T02:54:10.791Z,13.30
2018-03-25T02:59:13.502Z,11.67
2018-03-25T03:04:16.016Z,11.73
2018-03-25T03:09:18.546Z,11.07
2018-03-25T03:14:21.101Z,12.80
2018-03-25T03:19:24.196Z,12.87
2018-03-25T03:24:26.757Z,10.20
2018-03-25T03:29:29.288Z,11.07
2018-03-25T03:34:31.856Z,9.60
2018-03-25T03:39:34.887Z,10.97
2018-03-25T03:44:37.722Z,10.60
2018-03-25T03:49:40.324Z,12.67
2018-03-25T03:54:43.668Z,9.80
2018-03-25T03:59:46.209Z,10.93
2018-03-25T04:04:49.148Z,9.20
2018-03-25T04:09:52.246Z,13.50
2018-03-25T04:14:54.811Z,10.00
2018-03-25T04:19:57.362Z,9.70
2018-03-25T04:25:00.045Z,12.40
2018-03-25T04:30:02.598Z,10.53
2018-03-25T04:35:05.936Z,10.80
2018-03-25T04:40:09.247Z,11.03
2018-03-25T04:45:11.798Z,9.37
2018-03-25T04:50:14.494Z,11.87
2018-03-25T04:55:18.102Z,11.73
2018-03-25T05:00:20.611Z,10.53
2018-03-25T05:05:23.259Z,10.47
2018-03-25T05:10:25.770Z,10.57
2018-03-25T05:15:28.717Z,13.53
2018-03-25T05:20:31.211Z,13.10
2018-03-25T05:25:34.633Z,10.40
2018-03-25T05:30:37.125Z,12.73
2018-03-25T05:35:39.677Z,12.33
2018-03-25T05:40:42.319Z,8.93
2018-03-25T05:45:44.841Z,12.10
2018-03-25T05:50:47.539Z,8.30
2018-03-25T05:55:51.440Z,10.40
2018-03-25T06:00:54.303Z,9.03
2018-03-25T06:05:56.875Z,12.53
2018-03-25T06:11:00.297Z,13.07
2018-03-25T06:16:03.674Z,12.57
2018-03-25T06:21:06.240Z,10.50
2018-03-25T06:26:09.028Z,8.30
2018-03-25T06:31:11.804Z,10.57
2018-03-25T06:36:14.312Z,8.40
2018-03-25T06:41:16.806Z,9.13
2018-03-25T06:46:19.516Z,11.90
2018-03-25T06:51:22.391Z,8.47
2018-03-25T06:56:26.282Z,9.53
2018-03-25T07:01:28.954Z,9.50
2018-03-25T07:06:31.497Z,10.50
2018-03-25T07:11:34.052Z,9.33
2018-03-25T07:16:36.604Z,13.40
2018-03-25T07:21:39.146Z,8.40
2018-03-25T07:26:41.664Z,8.93
2018-03-25T07:31:44.170Z,9.10
2018-03-25T07:36:46.716Z,8.40
2018-03-25T07:41:49.380Z,7.97
2018-03-25T07:46:51.901Z,12.53
2018-03-25T07:51:54.416Z,11.17
2018-03-25T07:56:56.942Z,9.60
2018-03-25T08:01:59.487Z,12.10
2018-03-25T08:07:02.074Z,8.87
2018-03-25T08:12:04.581Z,9.47
2018-03-25T08:17:07.943Z,14.80
2018-03-25T08:22:11.250Z,10.10
2018-03-25T08:27:14.504Z,8.83
2018-03-25T08:32:17.059Z,8.97
2018-03-25T08:37:20.196Z,7.20
2018-03-25T08:42:22.721Z,7.60
2018-03-25T08:47:25.227Z,7.97
2018-03-25T08:52:27.971Z,11.00
2018-03-25T08:57:30.513Z,10.73
2018-03-25T09:02:33.019Z,9.03
2018-03-25T09:07:35.527Z,7.60
2018-03-25T09:12:38.639Z,8.50
2018-03-25T09:17:41.175Z,10.27
2018-03-25T09:22:43.685Z,12.40
2018-03-25T09:27:46.424Z,12.90
2018-03-25T09:32:49.903Z,14.30
2018-03-25T09:37:52.740Z,15.10
2018-03-25T09:42:55.933Z,15.90
2018-03-25T09:47:58.434Z,16.43
2018-03-25T09:53:01.014Z,16.70
2018-03-25T09:58:05.362Z,20.73
2018-03-25T10:03:13.640Z,21.13
2018-03-25T10:08:16.150Z,21.87
2018-03-25T10:13:18.668Z,22.77
2018-03-25T10:18:22.250Z,20.60
2018-03-25T10:23:24.791Z,22.93
2018-03-25T10:28:27.808Z,21.87
2018-03-25T10:33:31.840Z,21.27
2018-03-25T10:38:34.514Z,21.97
2018-03-25T10:43:37.729Z,28.27
2018-03-25T10:48:40.493Z,27.47
2018-03-25T10:53:43.140Z,25.40
2018-03-25T10:58:46.523Z,25.70
2018-03-25T11:03:49.568Z,25.27
2018-03-25T11:08:52.094Z,34.50
2018-03-25T11:13:56.048Z,30.80
2018-03-25T11:18:58.992Z,30.30
2018-03-25T11:24:02.942Z,28.53
2018-03-25T11:29:05.462Z,29.03
2018-03-25T11:34:08.842Z,33.20
2018-03-25T11:39:11.347Z,25.80
2018-03-25T11:44:13.862Z,29.30
2018-03-25T11:49:16.408Z,25.83
2018-03-25T11:54:19.739Z,20.83
2018-03-25T11:59:22.252Z,20.87
2018-03-25T12:04:24.962Z,18.53
2018-03-25T12:09:27.606Z,18.03
2018-03-25T12:14:30.895Z,15.97
2018-03-25T12:19:33.413Z,17.37
2018-03-25T12:24:37.035Z,13.00
2018-03-25T12:29:39.544Z,11.30
2018-03-25T12:34:42.042Z,12.30
2018-03-25T12:39:44.807Z,11.97
2018-03-25T12:44:47.504Z,12.13
2018-03-25T12:49:50.838Z,12.17
2018-03-25T12:54:53.345Z,13.60
2018-03-25T12:59:55.987Z,12.67
2018-03-25T13:04:59.348Z,11.77
2018-03-25T13:10:01.889Z,9.93
2018-03-25T13:15:04.588Z,10.23
2018-03-25T13:20:07.128Z,8.97
2018-03-25T13:25:09.700Z,8.10
2018-03-25T13:30:12.814Z,9.43
2018-03-25T13:35:16.040Z,14.97
2018-03-25T13:40:19.064Z,9.90
2018-03-25T13:45:21.685Z,9.63
2018-03-25T13:50:24.425Z,7.37
2018-03-25T13:55:27.694Z,9.40
2018-03-25T14:00:30.224Z,8.77
2018-03-25T14:05:32.725Z,8.70
2018-03-25T14:10:35.276Z,8.80
2018-03-25T14:15:38.729Z,7.00
2018-03-25T14:20:42.305Z,11.53
2018-03-25T14:25:44.906Z,7.87
2018-03-25T14:30:47.568Z,7.80
2018-03-25T14:35:50.621Z,7.97
2018-03-25T14:40:53.158Z,9.90
2018-03-25T14:45:56.439Z,6.93
2018-03-25T14:50:59.710Z,8.53
2018-03-25T14:56:02.230Z,5.60
2018-03-25T15:01:04.744Z,8.27
2018-03-25T15:06:07.351Z,6.57
2018-03-25T15:11:10.129Z,5.63
2018-03-25T15:16:12.931Z,6.00
2018-03-25T15:21:15.451Z,6.60
2018-03-25T15:26:18.226Z,9.13
2018-03-25T15:31:20.749Z,6.00
2018-03-25T15:36:23.533Z,7.30
2018-03-25T15:41:26.187Z,6.20
2018-03-25T15:46:29.619Z,7.67
2018-03-25T15:51:32.452Z,7.57
2018-03-25T15:56:34.973Z,6.83
2018-03-25T16:01:37.528Z,4.93
2018-03-25T16:06:40.089Z,7.10
2018-03-25T16:11:42.947Z,6.50
2018-03-25T16:16:45.516Z,6.50
2018-03-25T16:21:49.137Z,6.00
2018-03-25T16:26:51.697Z,7.43
2018-03-25T16:31:55.055Z,6.83
2018-03-25T16:36:57.709Z,16.40
2018-03-25T16:42:00.438Z,23.07
2018-03-25T16:47:03.153Z,28.83
2018-03-25T16:52:05.775Z,19.03
2018-03-25T16:57:08.427Z,17.93
2018-03-25T17:02:11.735Z,15.20
2018-03-25T17:07:14.325Z,14.70
2018-03-25T17:12:17.127Z,14.00
2018-03-25T17:17:19.660Z,12.80
2018-03-25T17:22:22.472Z,11.00
2018-03-25T17:27:25.047Z,10.87
2018-03-25T17:32:27.680Z,11.77
2018-03-25T17:37:30.416Z,12.00
2018-03-25T17:42:34.827Z,10.67
2018-03-25T17:47:37.386Z,10.27
2018-03-25T17:52:39.963Z,26.70
2018-03-25T17:57:43.054Z,18.43
2018-03-25T18:02:46.637Z,20.90
2018-03-25T18:07:49.484Z,12.73
2018-03-25T18:12:52.883Z,13.17
2018-03-25T18:17:55.440Z,13.57
2018-03-25T18:22:58.006Z,13.30
2018-03-25T18:28:00.794Z,16.13
2018-03-25T18:33:03.341Z,19.70
2018-03-25T18:38:06.569Z,12.80
2018-03-25T18:43:09.341Z,16.73
2018-03-25T18:48:12.045Z,16.97
2018-03-25T18:53:14.590Z,25.70
2018-03-25T18:58:17.212Z,30.87
2018-03-25T19:03:19.776Z,38.37
2018-03-25T19:08:22.379Z,36.20
2018-03-25T19:13:29.422Z,42.97
2018-03-25T19:18:31.974Z,39.13
2018-03-25T19:23:34.558Z,38.60
2018-03-25T19:28:37.749Z,38.33
2018-03-25T19:33:41.266Z,38.23
2018-03-25T19:38:44.215Z,37.07
2018-03-25T19:43:47.372Z,38.40
2018-03-25T19:48:50.699Z,38.20
2018-03-25T19:53:53.979Z,32.63
2018-03-25T19:58:56.632Z,39.60
2018-03-25T20:03:59.518Z,36.13
2018-03-25T20:09:02.430Z,29.37
2018-03-25T20:14:05.811Z,25.50
2018-03-25T20:19:09.166Z,28.47
2018-03-25T20:24:11.845Z,26.23
2018-03-25T20:29:15.224Z,25.70
2018-03-25T20:34:18.605Z,26.37
2018-03-25T20:39:21.455Z,23.50
2018-03-25T20:44:24.426Z,27.50
2018-03-25T20:49:26.993Z,24.63
2018-03-25T20:54:30.460Z,24.60
2018-03-25T20:59:33.418Z,20.00
2018-03-25T21:04:37.430Z,21.47
2018-03-25T21:09:40.570Z,21.33
2018-03-25T21:14:43.123Z,21.20
2018-03-25T21:19:45.693Z,20.73
2018-03-25T21:24:48.217Z,21.50
2018-03-25T21:29:51.409Z,19.90
2018-03-25T21:34:53.971Z,21.57
2018-03-25T21:39:56.589Z,19.90
2018-03-25T21:44:59.128Z,21.40
2018-03-25T21:50:01.876Z,18.30
2018-03-25T21:55:05.148Z,17.43
2018-03-25T22:00:07.682Z,18.67
2018-03-25T22:05:11.004Z,16.80
2018-03-25T22:10:14.558Z,16.07
2018-03-25T22:15:17.116Z,26.23
2018-03-25T22:20:19.772Z,14.77
2018-03-25T22:25:23.031Z,14.13
2018-03-25T22:30:25.555Z,13.13
2018-03-25T22:35:28.697Z,12.37
2018-03-25T22:40:31.317Z,12.10
2018-03-25T22:45:34.834Z,11.50
2018-03-25T22:50:37.749Z,11.07
2018-03-25T22:55:40.426Z,11.20
2018-03-25T23:00:43.846Z,12.20
2018-03-25T23:05:47.156Z,11.53
2018-03-25T23:10:49.685Z,14.27
2018-03-25T23:15:52.550Z,12.13
2018-03-25T23:20:55.234Z,12.30
2018-03-25T23:25:58.586Z,12.67
2018-03-25T23:31:01.918Z,12.93
2018-03-25T23:36:04.689Z,12.90
2018-03-25T23:41:07.478Z,11.67
2018-03-25T23:46:10.034Z,12.83
2018-03-25T23:51:12.980Z,11.60
2018-03-25T23:56:15.649Z,14.30
